createdAt,value
2022-10-06T00:00:51.799Z,0.00
2022-10-06T00:01:51.824Z,0.00
2022-10-06T00:02:51.764Z,0.00
2022-10-06T00:03:51.788Z,0.00
2022-10-06T00:04:51.714Z,0.00
2022-10-06T00:05:51.743Z,0.00
2022-10-06T00:06:51.739Z,0.00
2022-10-06T00:07:51.740Z,0.00
2022-10-06T00:08:51.668Z,0.00
2022-10-06T00:09:51.655Z,0.00
2022-10-06T00:10:51.651Z,0.00
2022-10-06T00:11:51.649Z,0.00
2022-10-06T00:12:51.637Z,0.00
2022-10-06T00:13:51.675Z,0.00
2022-10-06T00:14:51.620Z,0.00
2022-10-06T00:15:51.681Z,0.00
2022-10-06T00:16:51.598Z,0.00
2022-10-06T00:17:51.586Z,0.00
2022-10-06T00:18:51.572Z,0.00
2022-10-06T00:19:51.629Z,0.00
2022-10-06T00:20:51.550Z,0.00
2022-10-06T00:21:51.599Z,0.00
2022-10-06T00:22:51.535Z,0.00
2022-10-06T00:23:51.538Z,0.00
2022-10-06T00:24:51.509Z,0.00
2022-10-06T00:25:51.497Z,0.00
2022-10-06T00:26:51.507Z,0.00
2022-10-06T00:27:51.539Z,0.00
2022-10-06T00:28:51.486Z,0.00
2022-10-06T00:29:51.454Z,0.00
2022-10-06T00:30:51.519Z,0.00
2022-10-06T00:31:51.451Z,0.00
2022-10-06T00:32:51.448Z,0.00
2022-10-06T00:33:51.418Z,0.00
2022-10-06T00:34:51.480Z,0.00
2022-10-06T00:35:51.395Z,0.00
2022-10-06T00:36:51.401Z,0.00
2022-10-06T00:37:51.390Z,0.00
2022-10-06T00:38:51.381Z,0.00
2022-10-06T00:39:51.356Z,0.00
2022-10-06T00:40:51.420Z,0.00
2022-10-06T00:41:51.334Z,0.00
2022-10-06T00:42:51.343Z,0.00
2022-10-06T00:43:51.320Z,0.00
2022-10-06T00:44:51.319Z,0.00
2022-10-06T00:45:51.452Z,0.00
2022-10-06T00:46:51.291Z,0.00
2022-10-06T00:47:51.277Z,0.00
2022-10-06T00:48:51.319Z,0.00
2022-10-06T00:49:51.279Z,0.00
2022-10-06T00:50:51.330Z,0.00
2022-10-06T00:51:51.286Z,0.00
2022-10-06T00:52:51.231Z,0.00
2022-10-06T00:53:51.218Z,0.00
2022-10-06T00:54:51.226Z,0.00
2022-10-06T00:55:51.199Z,0.00
2022-10-06T00:56:51.255Z,0.00
2022-10-06T00:57:51.228Z,0.00
2022-10-06T00:58:51.216Z,0.00
2022-10-06T00:59:51.183Z,0.00
2022-10-06T01:00:51.152Z,0.00
2022-10-06T01:01:51.203Z,0.00
2022-10-06T01:02:51.177Z,0.00
2022-10-06T01:03:51.193Z,0.00
2022-10-06T01:04:51.112Z,0.00
2022-10-06T01:05:51.095Z,0.00
2022-10-06T01:06:51.113Z,0.00
2022-10-06T01:07:51.094Z,0.00
2022-10-06T01:08:51.082Z,0.00
2022-10-06T01:09:51.129Z,0.00
2022-10-06T01:10:51.117Z,0.00
2022-10-06T01:11:51.039Z,0.00
2022-10-06T01:12:51.067Z,0.00
2022-10-06T01:13:51.022Z,0.00
2022-10-06T01:14:51.015Z,0.00
2022-10-06T01:15:51.024Z,0.00
2022-10-06T01:16:51.045Z,0.00
2022-10-06T01:17:50.991Z,0.00
2022-10-06T01:18:50.978Z,0.00
2022-10-06T01:19:50.981Z,0.00
2022-10-06T01:20:50.963Z,0.00
2022-10-06T01:21:50.941Z,0.00
2022-10-06T01:22:50.974Z,0.00
2022-10-06T01:23:50.930Z,0.00
2022-10-06T01:24:50.933Z,0.00
2022-10-06T01:25:50.945Z,0.00
2022-10-06T01:26:50.936Z,0.00
2022-10-06T01:27:50.880Z,0.00
2022-10-06T01:28:50.945Z,0.00
2022-10-06T01:29:50.876Z,0.00
2022-10-06T01:30:50.977Z,0.00
2022-10-06T01:31:50.894Z,0.00
2022-10-06T01:32:50.832Z,0.00
2022-10-06T01:33:50.819Z,0.00
2022-10-06T01:34:50.864Z,0.00
2022-10-06T01:35:50.810Z,0.00
2022-10-06T01:36:50.788Z,0.00
2022-10-06T01:37:50.842Z,0.00
2022-10-06T01:38:50.774Z,0.00
2022-10-06T01:39:50.757Z,0.00
2022-10-06T01:40:50.757Z,0.00
2022-10-06T01:41:50.792Z,0.00
2022-10-06T01:42:50.734Z,0.00
2022-10-06T01:43:50.733Z,0.00
2022-10-06T01:44:50.765Z,0.00
2022-10-06T01:45:50.695Z,0.00
2022-10-06T01:46:50.751Z,0.00
2022-10-06T01:47:50.747Z,0.00
2022-10-06T01:48:50.668Z,0.00
2022-10-06T01:49:50.684Z,0.00
2022-10-06T01:50:50.661Z,0.00
2022-10-06T01:51:50.747Z,0.00
2022-10-06T01:52:50.636Z,0.00
2022-10-06T01:53:50.932Z,0.00
2022-10-06T01:54:50.636Z,0.00
2022-10-06T01:55:50.640Z,0.00
2022-10-06T01:56:50.609Z,0.00
2022-10-06T01:57:50.575Z,0.00
2022-10-06T01:58:50.581Z,0.00
2022-10-06T01:59:54.564Z,0.00
2022-10-06T02:00:50.595Z,0.00
2022-10-06T02:01:50.634Z,0.00
2022-10-06T02:02:50.562Z,0.00
2022-10-06T02:03:50.547Z,0.00
2022-10-06T02:04:50.525Z,0.00
2022-10-06T02:05:50.505Z,0.00
2022-10-06T02:06:50.489Z,0.00
2022-10-06T02:07:50.530Z,0.00
2022-10-06T02:08:50.522Z,0.00
2022-10-06T02:09:50.503Z,0.00
2022-10-06T02:10:50.458Z,0.00
2022-10-06T02:11:50.448Z,0.00
2022-10-06T02:12:50.432Z,0.00
2022-10-06T02:13:50.513Z,0.00
2022-10-06T02:14:50.430Z,0.00
2022-10-06T02:15:50.432Z,0.00
2022-10-06T02:16:50.487Z,0.00
2022-10-06T02:17:50.387Z,0.00
2022-10-06T02:18:50.372Z,0.00
2022-10-06T02:19:50.364Z,0.00
2022-10-06T02:20:50.348Z,0.00
2022-10-06T02:21:50.352Z,0.00
2022-10-06T02:22:50.391Z,0.00
2022-10-06T02:23:50.579Z,0.00
2022-10-06T02:24:50.324Z,0.00
2022-10-06T02:25:50.303Z,0.00
2022-10-06T02:26:50.291Z,0.00
2022-10-06T02:27:50.332Z,0.00
2022-10-06T02:28:50.314Z,0.00
2022-10-06T02:29:50.268Z,0.00
2022-10-06T02:30:50.289Z,0.00
2022-10-06T02:31:50.295Z,0.00
2022-10-06T02:32:50.233Z,0.00
2022-10-06T02:33:50.217Z,0.00
2022-10-06T02:34:50.217Z,0.00
2022-10-06T02:35:50.248Z,0.00
2022-10-06T02:36:50.190Z,0.00
2022-10-06T02:37:50.182Z,0.00
2022-10-06T02:38:50.176Z,0.00
2022-10-06T02:39:50.167Z,0.00
2022-10-06T02:40:50.166Z,0.00
2022-10-06T02:41:50.198Z,0.00
2022-10-06T02:42:50.154Z,0.00
2022-10-06T02:43:50.124Z,0.00
2022-10-06T02:44:50.119Z,0.00
2022-10-06T02:45:50.177Z,0.00
2022-10-06T02:46:50.214Z,0.00
2022-10-06T02:47:50.134Z,0.00
2022-10-06T02:48:50.079Z,0.00
2022-10-06T02:49:50.055Z,0.00
2022-10-06T02:50:50.061Z,0.00
2022-10-06T02:51:50.036Z,0.00
2022-10-06T02:52:50.079Z,0.00
2022-10-06T02:53:50.037Z,0.00
2022-10-06T02:54:50.009Z,0.00
2022-10-06T02:55:50.054Z,0.00
2022-10-06T02:56:49.995Z,0.00
2022-10-06T02:57:50.017Z,0.00
2022-10-06T02:58:49.970Z,0.00
2022-10-06T02:59:49.962Z,0.00
2022-10-06T03:00:49.980Z,0.00
2022-10-06T03:01:50.177Z,0.00
2022-10-06T03:02:49.981Z,0.00
2022-10-06T03:03:49.930Z,0.00
2022-10-06T03:04:49.909Z,0.00
2022-10-06T03:05:49.898Z,0.00
2022-10-06T03:06:49.888Z,0.00
2022-10-06T03:07:49.924Z,0.00
2022-10-06T03:08:49.865Z,0.00
2022-10-06T03:09:49.865Z,0.00
2022-10-06T03:10:49.847Z,0.00
2022-10-06T03:11:49.846Z,0.00
2022-10-06T03:12:49.824Z,0.00
2022-10-06T03:13:49.877Z,0.00
2022-10-06T03:14:49.824Z,0.00
2022-10-06T03:15:49.855Z,0.00
2022-10-06T03:16:49.791Z,0.00
2022-10-06T03:17:49.786Z,0.00
2022-10-06T03:18:49.774Z,0.00
2022-10-06T03:19:49.832Z,0.00
2022-10-06T03:20:49.753Z,0.00
2022-10-06T03:21:49.785Z,0.00
2022-10-06T03:22:49.730Z,0.00
2022-10-06T03:23:49.754Z,0.00
2022-10-06T03:24:49.766Z,0.00
2022-10-06T03:25:49.722Z,0.00
2022-10-06T03:26:49.741Z,0.00
2022-10-06T03:27:49.683Z,0.00
2022-10-06T03:28:49.739Z,0.00
2022-10-06T03:29:49.766Z,0.00
2022-10-06T03:30:49.691Z,0.00
2022-10-06T03:31:49.681Z,0.00
2022-10-06T03:32:49.673Z,0.00
2022-10-06T03:33:49.676Z,0.00
2022-10-06T03:34:49.616Z,0.00
2022-10-06T03:35:49.599Z,0.00
2022-10-06T03:36:49.585Z,0.00
2022-10-06T03:37:49.590Z,0.00
2022-10-06T03:38:49.617Z,0.00
2022-10-06T03:39:49.566Z,0.00
2022-10-06T03:40:49.546Z,0.00
2022-10-06T03:41:49.586Z,0.00
2022-10-06T03:42:49.554Z,0.00
2022-10-06T03:43:49.560Z,0.00
2022-10-06T03:44:49.550Z,0.00
2022-10-06T03:45:49.507Z,0.00
2022-10-06T03:46:49.642Z,0.00
2022-10-06T03:47:49.504Z,0.00
2022-10-06T03:48:49.478Z,0.00
2022-10-06T03:49:49.507Z,0.00
2022-10-06T03:50:49.530Z,0.00
2022-10-06T03:51:49.447Z,0.00
2022-10-06T03:52:49.424Z,0.00
2022-10-06T03:53:49.425Z,0.00
2022-10-06T03:54:49.420Z,0.00
2022-10-06T03:55:49.447Z,0.00
2022-10-06T03:56:49.403Z,0.00
2022-10-06T03:57:49.384Z,0.00
2022-10-06T03:58:49.375Z,0.00
2022-10-06T03:59:49.411Z,0.00
2022-10-06T04:00:49.404Z,0.00
2022-10-06T04:01:49.429Z,0.00
2022-10-06T04:02:49.336Z,0.00
2022-10-06T04:03:49.328Z,0.00
2022-10-06T04:04:49.317Z,0.00
2022-10-06T04:05:49.303Z,0.00
2022-10-06T04:06:49.402Z,0.00
2022-10-06T04:07:49.338Z,0.00
2022-10-06T04:08:49.278Z,0.00
2022-10-06T04:09:49.266Z,0.00
2022-10-06T04:10:49.256Z,0.00
2022-10-06T04:11:49.248Z,0.00
2022-10-06T04:12:49.299Z,0.00
2022-10-06T04:13:49.237Z,0.00
2022-10-06T04:14:49.218Z,0.00
2022-10-06T04:15:49.239Z,0.00
2022-10-06T04:16:49.194Z,0.00
2022-10-06T04:17:49.203Z,0.00
2022-10-06T04:18:49.230Z,0.00
2022-10-06T04:19:49.209Z,0.00
2022-10-06T04:20:49.154Z,0.00
2022-10-06T04:21:49.144Z,0.00
2022-10-06T04:22:49.198Z,0.00
2022-10-06T04:23:49.120Z,0.00
2022-10-06T04:24:49.112Z,0.00
2022-10-06T04:25:53.787Z,0.00
2022-10-06T04:26:49.304Z,0.00
2022-10-06T04:27:49.081Z,0.00
2022-10-06T04:28:49.134Z,0.00
2022-10-06T04:29:49.148Z,0.00
2022-10-06T04:30:49.102Z,0.00
2022-10-06T04:31:49.170Z,0.00
2022-10-06T04:32:49.046Z,0.00
2022-10-06T04:33:49.033Z,0.00
2022-10-06T04:34:49.013Z,0.00
2022-10-06T04:35:49.002Z,0.00
2022-10-06T04:36:49.044Z,0.00
2022-10-06T04:37:48.993Z,0.00
2022-10-06T04:38:48.972Z,0.00
2022-10-06T04:39:48.972Z,0.00
2022-10-06T04:40:48.948Z,0.00
2022-10-06T04:41:48.995Z,0.00
2022-10-06T04:42:48.992Z,0.00
2022-10-06T04:43:48.934Z,0.00
2022-10-06T04:44:48.988Z,0.00
2022-10-06T04:45:49.050Z,0.00
2022-10-06T04:46:48.979Z,0.00
2022-10-06T04:47:48.886Z,0.00
2022-10-06T04:48:48.922Z,0.00
2022-10-06T04:49:48.871Z,0.00
2022-10-06T04:50:48.851Z,1.00
2022-10-06T04:51:48.897Z,0.00
2022-10-06T04:52:48.842Z,0.00
2022-10-06T04:53:48.876Z,0.00
2022-10-06T04:54:48.802Z,1.00
2022-10-06T04:55:48.756Z,1.00
2022-10-06T04:56:48.797Z,0.00
2022-10-06T04:57:48.753Z,2.00
2022-10-06T04:58:48.769Z,2.00
2022-10-06T04:59:48.713Z,1.00
2022-10-06T05:00:48.734Z,1.00
2022-10-06T05:01:48.785Z,3.00
2022-10-06T05:02:48.700Z,1.00
2022-10-06T05:03:48.678Z,10.00
2022-10-06T05:04:48.671Z,8.00
2022-10-06T05:05:48.662Z,10.00
2022-10-06T05:06:48.636Z,9.00
2022-10-06T05:07:48.690Z,8.00
2022-10-06T05:08:48.688Z,13.00
2022-10-06T05:09:48.612Z,15.00
2022-10-06T05:10:48.609Z,22.00
2022-10-06T05:11:48.651Z,25.00
2022-10-06T05:12:48.596Z,31.00
2022-10-06T05:13:48.590Z,37.00
2022-10-06T05:14:48.558Z,45.00
2022-10-06T05:15:48.589Z,55.00
2022-10-06T05:16:48.631Z,66.00
2022-10-06T05:17:48.534Z,74.00
2022-10-06T05:18:48.568Z,85.00
2022-10-06T05:19:48.518Z,101.00
2022-10-06T05:20:48.554Z,115.00
2022-10-06T05:21:48.504Z,134.00
2022-10-06T05:22:48.494Z,153.00
2022-10-06T05:23:48.472Z,174.00
2022-10-06T05:24:48.469Z,195.00
2022-10-06T05:25:48.507Z,221.00
2022-10-06T05:26:48.492Z,246.00
2022-10-06T05:27:48.434Z,271.00
2022-10-06T05:28:48.491Z,294.00
2022-10-06T05:29:48.462Z,319.00
2022-10-06T05:30:48.406Z,342.00
2022-10-06T05:31:48.428Z,368.00
2022-10-06T05:32:48.429Z,410.00
2022-10-06T05:33:48.400Z,450.00
2022-10-06T05:34:48.382Z,467.00
2022-10-06T05:35:48.395Z,480.00
2022-10-06T05:36:48.404Z,525.00
2022-10-06T05:37:48.360Z,574.00
2022-10-06T05:38:48.330Z,612.00
2022-10-06T05:39:48.314Z,653.00
2022-10-06T05:40:48.332Z,694.00
2022-10-06T05:41:48.360Z,760.00
2022-10-06T05:42:48.291Z,825.00
2022-10-06T05:43:48.281Z,876.00
2022-10-06T05:44:48.296Z,914.00
2022-10-06T05:45:48.287Z,945.00
2022-10-06T05:46:48.309Z,1024.00
2022-10-06T05:47:48.234Z,1119.00
2022-10-06T05:48:48.229Z,1133.00
2022-10-06T05:49:48.244Z,1138.00
2022-10-06T05:50:48.205Z,1260.00
2022-10-06T05:51:48.246Z,1316.00
2022-10-06T05:52:48.189Z,1395.00
2022-10-06T05:53:48.177Z,1502.00
2022-10-06T05:54:48.176Z,1582.00
2022-10-06T05:55:48.153Z,1681.00
2022-10-06T05:56:48.194Z,1693.00
2022-10-06T05:57:48.139Z,1761.00
2022-10-06T05:58:48.136Z,1855.00
2022-10-06T05:59:48.139Z,1933.00
2022-10-06T06:00:48.167Z,1968.00
2022-10-06T06:01:48.192Z,2051.00
2022-10-06T06:02:48.170Z,2239.00
2022-10-06T06:03:48.080Z,2444.00
2022-10-06T06:04:48.094Z,2093.00
2022-10-06T06:05:48.100Z,2229.00
2022-10-06T06:06:48.050Z,2435.00
2022-10-06T06:07:48.043Z,2529.00
2022-10-06T06:08:48.062Z,2604.00
2022-10-06T06:09:48.023Z,2698.00
2022-10-06T06:10:48.001Z,2875.00
2022-10-06T06:11:48.072Z,2917.00
2022-10-06T06:12:48.037Z,2831.00
2022-10-06T06:13:47.978Z,2530.00
2022-10-06T06:14:47.975Z,3312.00
2022-10-06T06:15:47.959Z,2666.00
2022-10-06T06:16:48.055Z,2972.00
2022-10-06T06:17:47.959Z,2891.00
2022-10-06T06:18:47.928Z,2841.00
2022-10-06T06:19:47.929Z,2838.00
2022-10-06T06:20:47.906Z,2770.00
2022-10-06T06:21:47.973Z,2734.00
2022-10-06T06:22:47.889Z,2827.00
2022-10-06T06:23:47.872Z,3097.00
2022-10-06T06:24:47.867Z,3121.00
2022-10-06T06:25:47.867Z,3240.00
2022-10-06T06:26:47.840Z,3019.00
2022-10-06T06:27:47.884Z,3052.00
2022-10-06T06:28:47.971Z,3224.00
2022-10-06T06:29:47.830Z,3186.00
2022-10-06T06:30:47.872Z,3270.00
2022-10-06T06:31:47.870Z,3765.00
2022-10-06T06:32:47.855Z,3956.00
2022-10-06T06:33:47.772Z,3637.00
2022-10-06T06:34:47.759Z,4391.00
2022-10-06T06:35:47.765Z,3906.00
2022-10-06T06:36:47.751Z,3766.00
2022-10-06T06:37:47.741Z,4037.00
2022-10-06T06:38:47.764Z,4206.00
2022-10-06T06:39:47.764Z,4106.00
2022-10-06T06:40:47.749Z,2004.00
2022-10-06T06:41:47.704Z,7355.00
2022-10-06T06:42:52.933Z,3597.00
2022-10-06T06:43:47.689Z,6370.00
2022-10-06T06:44:47.713Z,6593.00
2022-10-06T06:45:47.752Z,6161.00
2022-10-06T06:46:47.644Z,6853.00
2022-10-06T06:47:47.631Z,5030.00
2022-10-06T06:48:47.622Z,6419.00
2022-10-06T06:49:47.633Z,7518.00
2022-10-06T06:50:47.650Z,6137.00
2022-10-06T06:51:47.643Z,7033.00
2022-10-06T06:52:47.587Z,5685.00
2022-10-06T06:53:47.589Z,7029.00
2022-10-06T06:54:47.558Z,7346.00
2022-10-06T06:55:47.559Z,7631.00
2022-10-06T06:56:47.607Z,7647.00
2022-10-06T06:57:47.533Z,7865.00
2022-10-06T06:58:47.517Z,8295.00
2022-10-06T06:59:47.522Z,8333.00
2022-10-06T07:00:47.508Z,8281.00
2022-10-06T07:01:47.659Z,8458.00
2022-10-06T07:02:47.533Z,8977.00
2022-10-06T07:04:02.834Z,9798.00
2022-10-06T07:04:47.465Z,8109.00
2022-10-06T07:05:47.462Z,10346.00
2022-10-06T07:06:47.443Z,12144.00
2022-10-06T07:07:47.443Z,10794.00
2022-10-06T07:08:47.428Z,9485.00
2022-10-06T07:09:47.504Z,9190.00
2022-10-06T07:10:47.405Z,10772.00
2022-10-06T07:11:47.402Z,12635.00
2022-10-06T07:12:47.420Z,12684.00
2022-10-06T07:13:47.376Z,12189.00
2022-10-06T07:14:47.467Z,11905.00
2022-10-06T07:15:47.431Z,11887.00
2022-10-06T07:16:47.417Z,11757.00
2022-10-06T07:17:47.330Z,11223.00
2022-10-06T07:18:47.319Z,11449.00
2022-10-06T07:19:47.321Z,11094.00
2022-10-06T07:20:47.305Z,9444.00
2022-10-06T07:21:47.284Z,10607.00
2022-10-06T07:22:47.334Z,12391.00
2022-10-06T07:23:47.266Z,12024.00
2022-10-06T07:24:47.361Z,14517.00
2022-10-06T07:25:47.319Z,14571.00
2022-10-06T07:26:47.245Z,14975.00
2022-10-06T07:27:47.280Z,15833.00
2022-10-06T07:28:47.292Z,14213.00
2022-10-06T07:29:47.226Z,15046.00
2022-10-06T07:30:47.205Z,15476.00
2022-10-06T07:31:47.197Z,14211.00
2022-10-06T07:32:47.242Z,14872.00
2022-10-06T07:33:47.167Z,15423.00
2022-10-06T07:34:47.175Z,11838.00
2022-10-06T07:35:47.162Z,8525.00
2022-10-06T07:36:47.142Z,13707.00
2022-10-06T07:37:47.133Z,14422.00
2022-10-06T07:38:47.163Z,14500.00
2022-10-06T07:39:47.105Z,13771.00
2022-10-06T07:41:14.609Z,13859.00
2022-10-06T07:41:47.093Z,13285.00
2022-10-06T07:42:47.080Z,13227.00
2022-10-06T07:43:47.089Z,13230.00
2022-10-06T07:44:47.127Z,13553.00
2022-10-06T07:45:47.122Z,13361.00
2022-10-06T07:46:47.040Z,12891.00
2022-10-06T07:47:47.046Z,13298.00
2022-10-06T07:48:47.140Z,13331.00
2022-10-06T07:49:47.023Z,13449.00
2022-10-06T07:50:47.006Z,13770.00
2022-10-06T07:51:47.002Z,13605.00
2022-10-06T07:52:46.979Z,13310.00
2022-10-06T07:53:47.008Z,14264.00
2022-10-06T07:54:46.987Z,15169.00
2022-10-06T07:55:47.003Z,16092.00
2022-10-06T07:56:46.945Z,18640.00
2022-10-06T07:57:46.931Z,9929.00
2022-10-06T07:58:46.947Z,6686.00
2022-10-06T07:59:46.902Z,18436.00
2022-10-06T08:00:46.909Z,19796.00
2022-10-06T08:01:47.030Z,19170.00
2022-10-06T08:02:46.913Z,19043.00
2022-10-06T08:03:46.863Z,20166.00
2022-10-06T08:04:46.917Z,19128.00
2022-10-06T08:05:46.872Z,22901.00
2022-10-06T08:06:46.837Z,9992.00
2022-10-06T08:07:46.825Z,8149.00
2022-10-06T08:08:50.352Z,21101.00
2022-10-06T08:09:46.813Z,20682.00
2022-10-06T08:10:46.854Z,20733.00
2022-10-06T08:11:46.790Z,21505.00
2022-10-06T08:13:46.785Z,20571.00
2022-10-06T08:14:46.787Z,15583.00
2022-10-06T08:15:46.826Z,26379.00
2022-10-06T08:16:46.738Z,22911.00
2022-10-06T08:17:46.744Z,26614.00
2022-10-06T08:18:47.307Z,29510.00
2022-10-06T08:19:46.719Z,31957.00
2022-10-06T08:20:46.717Z,32171.00
2022-10-06T08:21:46.682Z,16416.00
2022-10-06T08:22:46.675Z,26713.00
2022-10-06T08:23:46.682Z,25821.00
2022-10-06T08:25:04.634Z,26555.00
2022-10-06T08:25:46.735Z,35583.00
2022-10-06T08:26:46.661Z,24528.00
2022-10-06T08:27:51.277Z,11141.00
2022-10-06T08:28:46.623Z,34628.00
2022-10-06T08:29:46.610Z,18991.00
2022-10-06T08:30:46.648Z,23605.00
2022-10-06T08:31:46.684Z,24173.00
2022-10-06T08:32:46.607Z,22074.00
2022-10-06T08:33:46.566Z,19605.00
2022-10-06T08:34:46.594Z,19166.00
2022-10-06T08:35:46.599Z,16629.00
2022-10-06T08:37:02.458Z,15305.00
2022-10-06T08:37:46.594Z,14724.00
2022-10-06T08:38:46.578Z,14481.00
2022-10-06T08:39:46.510Z,13002.00
2022-10-06T08:40:46.535Z,18683.00
2022-10-06T08:41:46.548Z,14386.00
2022-10-06T08:42:46.497Z,13979.00
2022-10-06T08:43:46.473Z,13594.00
2022-10-06T08:44:46.488Z,12786.00
2022-10-06T08:45:46.480Z,13331.00
2022-10-06T08:46:46.437Z,13819.00
2022-10-06T08:47:46.482Z,14067.00
2022-10-06T08:48:46.432Z,15219.00
2022-10-06T08:49:46.452Z,14569.00
2022-10-06T08:50:46.464Z,14699.00
2022-10-06T08:51:46.393Z,15020.00
2022-10-06T08:52:46.382Z,13376.00
2022-10-06T08:53:46.380Z,14210.00
2022-10-06T08:54:46.352Z,14523.00
2022-10-06T08:55:46.349Z,15092.00
2022-10-06T08:56:46.391Z,17261.00
2022-10-06T08:57:46.385Z,16088.00
2022-10-06T08:58:46.329Z,16362.00
2022-10-06T08:59:46.324Z,15196.00
2022-10-06T09:00:46.349Z,15611.00
2022-10-06T09:01:46.561Z,17571.00
2022-10-06T09:02:46.389Z,17063.00
2022-10-06T09:03:46.267Z,14797.00
2022-10-06T09:04:46.502Z,12707.00
2022-10-06T09:05:46.244Z,11078.00
2022-10-06T09:06:46.262Z,10311.00
2022-10-06T09:07:46.235Z,9175.00
2022-10-06T09:08:46.232Z,8753.00
2022-10-06T09:09:46.219Z,8643.00
2022-10-06T09:10:46.248Z,9859.00
2022-10-06T09:11:46.237Z,10320.00
2022-10-06T09:12:46.203Z,10527.00
2022-10-06T09:13:46.211Z,11680.00
2022-10-06T09:14:46.159Z,13346.00
2022-10-06T09:15:46.182Z,13547.00
2022-10-06T09:16:46.183Z,13151.00
2022-10-06T09:17:46.121Z,12207.00
2022-10-06T09:19:46.152Z,10664.00
2022-10-06T09:20:46.128Z,10104.00
2022-10-06T09:21:46.158Z,9330.00
2022-10-06T09:22:46.088Z,8448.00
2022-10-06T09:23:46.061Z,7663.00
2022-10-06T09:24:47.473Z,7959.00
2022-10-06T09:25:46.079Z,9908.00
2022-10-06T09:26:46.034Z,12180.00
2022-10-06T09:27:46.171Z,13662.00
2022-10-06T09:28:46.055Z,15221.00
2022-10-06T09:29:46.051Z,15050.00
2022-10-06T09:30:46.259Z,18258.00
2022-10-06T09:31:46.070Z,19771.00
2022-10-06T09:32:46.033Z,12652.00
2022-10-06T09:33:45.970Z,23053.00
2022-10-06T09:34:45.961Z,15455.00
2022-10-06T09:35:46.009Z,13965.00
2022-10-06T09:36:45.931Z,13321.00
2022-10-06T09:37:45.965Z,13456.00
2022-10-06T09:38:45.924Z,13483.00
2022-10-06T09:39:45.943Z,13636.00
2022-10-06T09:40:45.950Z,13400.00
2022-10-06T09:41:45.901Z,13281.00
2022-10-06T09:42:45.874Z,13812.00
2022-10-06T09:43:45.867Z,14342.00
2022-10-06T09:44:45.869Z,14195.00
2022-10-06T09:45:45.885Z,14443.00
2022-10-06T09:46:45.831Z,14577.00
2022-10-06T09:47:45.976Z,14917.00
2022-10-06T09:48:45.834Z,15177.00
2022-10-06T09:49:45.801Z,15548.00
2022-10-06T09:50:45.858Z,16041.00
2022-10-06T09:51:45.779Z,16630.00
2022-10-06T09:52:45.771Z,17136.00
2022-10-06T09:53:45.758Z,17449.00
2022-10-06T09:54:45.754Z,17738.00
2022-10-06T09:55:45.787Z,19157.00
2022-10-06T09:56:45.734Z,19066.00
2022-10-06T09:57:45.725Z,19752.00
2022-10-06T09:58:45.862Z,19086.00
2022-10-06T09:59:45.701Z,18928.00
2022-10-06T10:00:45.799Z,18100.00
2022-10-06T10:01:45.677Z,13414.00
2022-10-06T10:02:45.753Z,16947.00
2022-10-06T10:04:02.069Z,76766.00
2022-10-06T10:04:49.512Z,63140.00
2022-10-06T10:05:45.690Z,23560.00
2022-10-06T10:06:45.692Z,19772.00
2022-10-06T10:07:45.619Z,18252.00
2022-10-06T10:08:45.685Z,20078.00
2022-10-06T10:09:45.654Z,18361.00
2022-10-06T10:10:45.592Z,17584.00
2022-10-06T10:11:45.582Z,16793.00
2022-10-06T10:12:45.581Z,16700.00
2022-10-06T10:13:45.568Z,16201.00
2022-10-06T10:14:45.569Z,15428.00
2022-10-06T10:15:45.640Z,14651.00
2022-10-06T10:16:47.668Z,14096.00
2022-10-06T10:17:45.521Z,13802.00
2022-10-06T10:18:45.509Z,13441.00
2022-10-06T10:19:45.519Z,13732.00
2022-10-06T10:20:45.583Z,14317.00
2022-10-06T10:21:45.480Z,14856.00
2022-10-06T10:22:45.471Z,15979.00
2022-10-06T10:23:45.559Z,16620.00
2022-10-06T10:24:45.461Z,17907.00
2022-10-06T10:25:45.442Z,19804.00
2022-10-06T10:26:45.484Z,21394.00
2022-10-06T10:27:45.431Z,28481.00
2022-10-06T10:28:45.414Z,8492.00
2022-10-06T10:29:45.406Z,65710.00
2022-10-06T10:30:45.389Z,30073.00
2022-10-06T10:31:45.440Z,25090.00
2022-10-06T10:32:45.414Z,29645.00
2022-10-06T10:33:54.062Z,79438.00
2022-10-06T10:34:45.533Z,65281.00
2022-10-06T10:35:45.399Z,28722.00
2022-10-06T10:36:45.342Z,29791.00
2022-10-06T10:37:45.333Z,29997.00
2022-10-06T10:38:45.312Z,18830.00
2022-10-06T10:39:45.312Z,37713.00
2022-10-06T10:40:45.339Z,8757.00
2022-10-06T10:41:45.324Z,78450.00
2022-10-06T10:42:45.283Z,77237.00
2022-10-06T10:43:45.258Z,66905.00
2022-10-06T10:44:45.244Z,33004.00
2022-10-06T10:45:45.250Z,13963.00
2022-10-06T10:46:45.317Z,70519.00
2022-10-06T10:47:45.216Z,68315.00
2022-10-06T10:48:45.217Z,34767.00
2022-10-06T10:49:45.207Z,30946.00
2022-10-06T10:50:45.256Z,24821.00
2022-10-06T10:51:45.181Z,31307.00
2022-10-06T10:52:45.168Z,30716.00
2022-10-06T10:53:45.160Z,25108.00
2022-10-06T10:54:45.165Z,23133.00
2022-10-06T10:55:45.181Z,21965.00
2022-10-06T10:56:45.139Z,33580.00
2022-10-06T10:57:45.124Z,29697.00
2022-10-06T10:58:45.219Z,25645.00
2022-10-06T10:59:45.102Z,27207.00
2022-10-06T11:00:45.384Z,22628.00
2022-10-06T11:01:45.155Z,21833.00
2022-10-06T11:02:45.088Z,22159.00
2022-10-06T11:03:45.072Z,22232.00
2022-10-06T11:04:45.110Z,21829.00
2022-10-06T11:05:45.045Z,21393.00
2022-10-06T11:06:45.047Z,21439.00
2022-10-06T11:07:45.026Z,22463.00
2022-10-06T11:08:45.030Z,23092.00
2022-10-06T11:09:45.002Z,23275.00
2022-10-06T11:10:45.038Z,21748.00
2022-10-06T11:11:48.608Z,19169.00
2022-10-06T11:12:45.008Z,19251.00
2022-10-06T11:13:44.997Z,22069.00
2022-10-06T11:14:44.952Z,22805.00
2022-10-06T11:15:44.974Z,32823.00
2022-10-06T11:16:44.975Z,36756.00
2022-10-06T11:17:45.027Z,30447.00
2022-10-06T11:18:44.917Z,29397.00
2022-10-06T11:19:44.907Z,27720.00
2022-10-06T11:20:45.427Z,24351.00
2022-10-06T11:21:44.880Z,25416.00
2022-10-06T11:22:44.920Z,23852.00
2022-10-06T11:23:44.862Z,23517.00
2022-10-06T11:24:44.861Z,21927.00
2022-10-06T11:25:44.910Z,22626.00
2022-10-06T11:26:44.874Z,24573.00
2022-10-06T11:27:44.852Z,21636.00
2022-10-06T11:28:44.857Z,22424.00
2022-10-06T11:29:44.822Z,21031.00
2022-10-06T11:30:44.836Z,20758.00
2022-10-06T11:31:44.864Z,20536.00
2022-10-06T11:32:44.789Z,22002.00
2022-10-06T11:33:44.767Z,21188.00
2022-10-06T11:34:44.746Z,21996.00
2022-10-06T11:35:44.760Z,22225.00
2022-10-06T11:36:44.737Z,21504.00
2022-10-06T11:37:44.717Z,21162.00
2022-10-06T11:38:44.716Z,21285.00
2022-10-06T11:39:44.705Z,20576.00
2022-10-06T11:40:44.711Z,19655.00
2022-10-06T11:41:44.701Z,19540.00
2022-10-06T11:42:44.750Z,23043.00
2022-10-06T11:43:44.689Z,26807.00
2022-10-06T11:44:44.657Z,24020.00
2022-10-06T11:45:44.720Z,20696.00
2022-10-06T11:46:45.335Z,19409.00
2022-10-06T11:47:44.620Z,18559.00
2022-10-06T11:48:44.648Z,18259.00
2022-10-06T11:49:44.598Z,18400.00
2022-10-06T11:50:44.620Z,18893.00
2022-10-06T11:51:44.589Z,20704.00
2022-10-06T11:52:44.572Z,19869.00
2022-10-06T11:53:44.595Z,20577.00
2022-10-06T11:54:44.587Z,20094.00
2022-10-06T11:55:44.542Z,21162.00
2022-10-06T11:56:44.535Z,21845.00
2022-10-06T11:57:44.551Z,19533.00
2022-10-06T11:58:44.509Z,25601.00
2022-10-06T11:59:44.521Z,22900.00
2022-10-06T12:00:44.506Z,19181.00
2022-10-06T12:01:44.557Z,18763.00
2022-10-06T12:02:44.711Z,17908.00
2022-10-06T12:03:44.493Z,18174.00
2022-10-06T12:04:44.455Z,20421.00
2022-10-06T12:05:59.693Z,20774.00
2022-10-06T12:06:44.458Z,29764.00
2022-10-06T12:07:44.446Z,30822.00
2022-10-06T12:08:44.423Z,23756.00
2022-10-06T12:09:44.868Z,36956.00
2022-10-06T12:10:44.386Z,27338.00
2022-10-06T12:11:44.405Z,23651.00
2022-10-06T12:12:47.738Z,20754.00
2022-10-06T12:14:44.601Z,11804.00
2022-10-06T12:17:19.325Z,29260.00
2022-10-06T12:18:14.783Z,11867.00
2022-10-06T12:19:14.741Z,67847.00
2022-10-06T12:20:14.734Z,36428.00
2022-10-06T12:21:14.788Z,30762.00
2022-10-06T12:22:14.728Z,12565.00
2022-10-06T12:23:14.708Z,65030.00
2022-10-06T12:25:14.704Z,67339.00
2022-10-06T12:26:14.724Z,28957.00
2022-10-06T12:27:14.657Z,28548.00
2022-10-06T12:28:14.735Z,71277.00
2022-10-06T12:29:14.656Z,67927.00
2022-10-06T12:30:14.681Z,32688.00
2022-10-06T12:31:18.286Z,11629.00
2022-10-06T12:32:14.617Z,63408.00